sensor_id;sensor_type;location;lat;lon;timestamp;P1;durP1;ratioP1;P2;durP2;ratioP2
15818;SDS011;8010;53.986;12.106;2023-04-01T00:01:28;5.60;;;3.60;;
15818;SDS011;8010;53.986;12.106;2023-04-01T00:03:54;5.50;;;3.30;;
15818;SDS011;8010;53.986;12.106;2023-04-01T00:06:21;4.70;;;3.13;;
15818;SDS011;8010;53.986;12.106;2023-04-01T00:08:46;5.07;;;3.27;;
15818;SDS011;8010;53.986;12.106;2023-04-01T00:11:12;4.53;;;3.53;;
15818;SDS011;8010;53.986;12.106;2023-04-01T00:13:39;5.53;;;3.80;;
15818;SDS011;8010;53.986;12.106;2023-04-01T00:16:06;4.60;;;3.47;;
15818;SDS011;8010;53.986;12.106;2023-04-01T00:18:32;6.40;;;3.93;;
15818;SDS011;8010;53.986;12.106;2023-04-01T00:20:57;7.30;;;4.00;;
15818;SDS011;8010;53.986;12.106;2023-04-01T00:23:23;4.97;;;3.20;;
15818;SDS011;8010;53.986;12.106;2023-04-01T00:25:49;4.90;;;3.30;;
15818;SDS011;8010;53.986;12.106;2023-04-01T00:28:16;3.67;;;2.67;;
15818;SDS011;8010;53.986;12.106;2023-04-01T00:30:42;4.77;;;2.63;;
15818;SDS011;8010;53.986;12.106;2023-04-01T00:33:08;5.93;;;2.63;;
15818;SDS011;8010;53.986;12.106;2023-04-01T00:35:34;3.50;;;2.50;;
15818;SDS011;8010;53.986;12.106;2023-04-01T00:38:00;4.87;;;2.40;;
15818;SDS011;8010;53.986;12.106;2023-04-01T00:40:30;4.90;;;2.00;;
15818;SDS011;8010;53.986;12.106;2023-04-01T00:43:01;4.07;;;2.33;;
15818;SDS011;8010;53.986;12.106;2023-04-01T00:47:58;5.13;;;2.30;;
15818;SDS011;8010;53.986;12.106;2023-04-01T00:50:27;5.57;;;2.20;;
15818;SDS011;8010;53.986;12.106;2023-04-01T00:52:53;4.10;;;2.33;;
15818;SDS011;8010;53.986;12.106;2023-04-01T00:55:19;2.43;;;1.80;;
15818;SDS011;8010;53.986;12.106;2023-04-01T00:57:47;5.87;;;2.50;;
15818;SDS011;8010;53.986;12.106;2023-04-01T01:00:14;6.33;;;2.23;;
15818;SDS011;8010;53.986;12.106;2023-04-01T01:02:41;5.10;;;2.53;;
15818;SDS011;8010;53.986;12.106;2023-04-01T01:05:11;5.43;;;2.20;;
15818;SDS011;8010;53.986;12.106;2023-04-01T01:07:45;5.47;;;2.50;;
15818;SDS011;8010;53.986;12.106;2023-04-01T01:16:03;4.00;;;2.17;;
15818;SDS011;8010;53.986;12.106;2023-04-01T01:19:14;2.43;;;1.93;;
15818;SDS011;8010;53.986;12.106;2023-04-01T01:21:59;3.37;;;2.10;;
15818;SDS011;8010;53.986;12.106;2023-04-01T01:27:14;3.53;;;1.87;;
15818;SDS011;8010;53.986;12.106;2023-04-01T01:35:33;2.93;;;1.77;;
15818;SDS011;8010;53.986;12.106;2023-04-01T01:38:01;2.50;;;1.97;;
15818;SDS011;8010;53.986;12.106;2023-04-01T01:40:33;3.67;;;2.20;;
15818;SDS011;8010;53.986;12.106;2023-04-01T01:43:05;4.07;;;1.80;;
15818;SDS011;8010;53.986;12.106;2023-04-01T01:45:34;4.27;;;2.10;;
15818;SDS011;8010;53.986;12.106;2023-04-01T01:48:04;3.27;;;2.20;;
15818;SDS011;8010;53.986;12.106;2023-04-01T01:50:31;4.00;;;2.37;;
15818;SDS011;8010;53.986;12.106;2023-04-01T01:53:04;5.00;;;2.50;;
15818;SDS011;8010;53.986;12.106;2023-04-01T01:58:04;3.27;;;1.80;;
15818;SDS011;8010;53.986;12.106;2023-04-01T02:00:37;4.07;;;1.80;;
15818;SDS011;8010;53.986;12.106;2023-04-01T02:03:03;2.67;;;1.70;;
15818;SDS011;8010;53.986;12.106;2023-04-01T02:05:30;3.60;;;1.83;;
15818;SDS011;8010;53.986;12.106;2023-04-01T02:11:04;2.27;;;1.60;;
15818;SDS011;8010;53.986;12.106;2023-04-01T02:13:49;2.60;;;1.53;;
15818;SDS011;8010;53.986;12.106;2023-04-01T02:16:27;4.87;;;1.70;;
15818;SDS011;8010;53.986;12.106;2023-04-01T02:18:57;2.83;;;1.50;;
15818;SDS011;8010;53.986;12.106;2023-04-01T02:21:24;3.40;;;1.70;;
15818;SDS011;8010;53.986;12.106;2023-04-01T02:23:52;3.03;;;1.70;;
15818;SDS011;8010;53.986;12.106;2023-04-01T02:26:19;3.80;;;1.80;;
15818;SDS011;8010;53.986;12.106;2023-04-01T02:28:46;2.77;;;1.70;;
15818;SDS011;8010;53.986;12.106;2023-04-01T02:31:15;2.83;;;1.60;;
15818;SDS011;8010;53.986;12.106;2023-04-01T02:33:41;3.93;;;1.70;;
15818;SDS011;8010;53.986;12.106;2023-04-01T02:36:10;3.27;;;1.70;;
15818;SDS011;8010;53.986;12.106;2023-04-01T02:38:38;6.20;;;2.03;;
15818;SDS011;8010;53.986;12.106;2023-04-01T02:41:04;3.43;;;2.03;;
15818;SDS011;8010;53.986;12.106;2023-04-01T02:43:31;3.43;;;1.70;;
15818;SDS011;8010;53.986;12.106;2023-04-01T02:45:56;4.77;;;2.00;;
15818;SDS011;8010;53.986;12.106;2023-04-01T02:48:22;2.50;;;1.80;;
15818;SDS011;8010;53.986;12.106;2023-04-01T02:50:48;2.60;;;1.80;;
15818;SDS011;8010;53.986;12.106;2023-04-01T02:53:14;5.60;;;2.07;;
15818;SDS011;8010;53.986;12.106;2023-04-01T02:55:40;6.00;;;2.30;;
15818;SDS011;8010;53.986;12.106;2023-04-01T02:58:06;2.10;;;1.60;;
15818;SDS011;8010;53.986;12.106;2023-04-01T03:00:31;3.20;;;2.10;;
15818;SDS011;8010;53.986;12.106;2023-04-01T03:02:57;3.70;;;2.30;;
15818;SDS011;8010;53.986;12.106;2023-04-01T03:05:22;4.43;;;2.20;;
15818;SDS011;8010;53.986;12.106;2023-04-01T03:07:48;3.03;;;1.73;;
15818;SDS011;8010;53.986;12.106;2023-04-01T03:10:14;3.67;;;2.10;;
15818;SDS011;8010;53.986;12.106;2023-04-01T03:12:40;4.03;;;1.97;;
15818;SDS011;8010;53.986;12.106;2023-04-01T03:15:05;3.33;;;2.20;;
15818;SDS011;8010;53.986;12.106;2023-04-01T03:17:31;5.30;;;2.23;;
15818;SDS011;8010;53.986;12.106;2023-04-01T03:19:57;2.33;;;1.77;;
15818;SDS011;8010;53.986;12.106;2023-04-01T03:22:22;4.23;;;1.90;;
15818;SDS011;8010;53.986;12.106;2023-04-01T03:24:48;2.80;;;2.33;;
15818;SDS011;8010;53.986;12.106;2023-04-01T03:27:14;4.70;;;2.17;;
15818;SDS011;8010;53.986;12.106;2023-04-01T03:29:40;3.60;;;2.13;;
15818;SDS011;8010;53.986;12.106;2023-04-01T03:32:06;2.70;;;1.80;;
15818;SDS011;8010;53.986;12.106;2023-04-01T03:34:31;3.53;;;2.20;;
15818;SDS011;8010;53.986;12.106;2023-04-01T03:36:57;3.93;;;1.97;;
15818;SDS011;8010;53.986;12.106;2023-04-01T03:39:23;4.53;;;2.00;;
15818;SDS011;8010;53.986;12.106;2023-04-01T03:41:50;2.33;;;1.53;;
15818;SDS011;8010;53.986;12.106;2023-04-01T03:44:15;3.80;;;1.67;;
15818;SDS011;8010;53.986;12.106;2023-04-01T03:46:41;2.83;;;1.83;;
15818;SDS011;8010;53.986;12.106;2023-04-01T03:49:07;3.63;;;1.80;;
15818;SDS011;8010;53.986;12.106;2023-04-01T03:51:40;2.77;;;1.77;;
15818;SDS011;8010;53.986;12.106;2023-04-01T03:54:07;2.93;;;1.60;;
15818;SDS011;8010;53.986;12.106;2023-04-01T03:56:34;2.97;;;2.03;;
15818;SDS011;8010;53.986;12.106;2023-04-01T03:59:02;2.90;;;2.00;;
15818;SDS011;8010;53.986;12.106;2023-04-01T04:01:28;4.63;;;2.13;;
15818;SDS011;8010;53.986;12.106;2023-04-01T04:03:54;4.50;;;2.10;;
15818;SDS011;8010;53.986;12.106;2023-04-01T04:06:21;3.53;;;1.93;;
15818;SDS011;8010;53.986;12.106;2023-04-01T04:08:47;3.80;;;1.53;;
15818;SDS011;8010;53.986;12.106;2023-04-01T04:11:13;1.80;;;1.53;;
15818;SDS011;8010;53.986;12.106;2023-04-01T04:13:39;2.93;;;1.27;;
15818;SDS011;8010;53.986;12.106;2023-04-01T04:16:05;2.73;;;1.70;;
15818;SDS011;8010;53.986;12.106;2023-04-01T04:18:31;4.03;;;1.50;;
15818;SDS011;8010;53.986;12.106;2023-04-01T04:20:56;2.53;;;1.53;;
15818;SDS011;8010;53.986;12.106;2023-04-01T04:23:22;4.30;;;1.50;;
15818;SDS011;8010;53.986;12.106;2023-04-01T04:25:57;3.67;;;1.90;;
15818;SDS011;8010;53.986;12.106;2023-04-01T04:28:25;2.20;;;1.40;;
15818;SDS011;8010;53.986;12.106;2023-04-01T04:30:51;3.97;;;1.70;;
15818;SDS011;8010;53.986;12.106;2023-04-01T04:33:17;4.03;;;1.90;;
15818;SDS011;8010;53.986;12.106;2023-04-01T04:35:42;3.63;;;1.57;;
15818;SDS011;8010;53.986;12.106;2023-04-01T04:38:08;2.03;;;1.37;;
15818;SDS011;8010;53.986;12.106;2023-04-01T04:40:35;1.97;;;1.40;;
15818;SDS011;8010;53.986;12.106;2023-04-01T04:43:02;3.33;;;1.60;;
15818;SDS011;8010;53.986;12.106;2023-04-01T04:45:28;1.57;;;1.20;;
15818;SDS011;8010;53.986;12.106;2023-04-01T04:47:53;2.33;;;1.33;;
15818;SDS011;8010;53.986;12.106;2023-04-01T04:50:19;2.80;;;1.53;;
15818;SDS011;8010;53.986;12.106;2023-04-01T04:52:45;3.87;;;1.40;;
15818;SDS011;8010;53.986;12.106;2023-04-01T04:55:10;2.93;;;1.27;;
15818;SDS011;8010;53.986;12.106;2023-04-01T04:57:36;2.93;;;1.50;;
15818;SDS011;8010;53.986;12.106;2023-04-01T05:00:02;3.07;;;1.90;;
15818;SDS011;8010;53.986;12.106;2023-04-01T05:02:28;3.67;;;1.73;;
15818;SDS011;8010;53.986;12.106;2023-04-01T05:04:53;2.10;;;1.37;;
15818;SDS011;8010;53.986;12.106;2023-04-01T05:07:19;3.17;;;1.80;;
15818;SDS011;8010;53.986;12.106;2023-04-01T05:09:45;4.87;;;1.80;;
15818;SDS011;8010;53.986;12.106;2023-04-01T05:12:10;5.10;;;1.60;;
15818;SDS011;8010;53.986;12.106;2023-04-01T05:14:37;2.50;;;1.57;;
15818;SDS011;8010;53.986;12.106;2023-04-01T05:17:03;3.90;;;1.97;;
15818;SDS011;8010;53.986;12.106;2023-04-01T05:19:29;3.27;;;1.90;;
15818;SDS011;8010;53.986;12.106;2023-04-01T05:21:54;3.20;;;1.70;;
15818;SDS011;8010;53.986;12.106;2023-04-01T05:24:20;2.57;;;1.80;;
15818;SDS011;8010;53.986;12.106;2023-04-01T05:26:45;3.00;;;1.80;;
15818;SDS011;8010;53.986;12.106;2023-04-01T05:29:11;3.83;;;2.03;;
15818;SDS011;8010;53.986;12.106;2023-04-01T05:31:36;4.80;;;2.13;;
15818;SDS011;8010;53.986;12.106;2023-04-01T05:34:02;4.53;;;1.73;;
15818;SDS011;8010;53.986;12.106;2023-04-01T05:36:28;4.30;;;1.73;;
15818;SDS011;8010;53.986;12.106;2023-04-01T05:38:56;5.57;;;2.47;;
15818;SDS011;8010;53.986;12.106;2023-04-01T05:41:22;3.33;;;2.00;;
15818;SDS011;8010;53.986;12.106;2023-04-01T05:43:47;4.83;;;2.30;;
15818;SDS011;8010;53.986;12.106;2023-04-01T05:46:13;4.37;;;2.30;;
15818;SDS011;8010;53.986;12.106;2023-04-01T05:48:38;5.37;;;2.80;;
15818;SDS011;8010;53.986;12.106;2023-04-01T05:51:04;4.73;;;2.40;;
15818;SDS011;8010;53.986;12.106;2023-04-01T05:53:30;3.30;;;2.03;;
15818;SDS011;8010;53.986;12.106;2023-04-01T05:55:56;3.37;;;2.13;;
15818;SDS011;8010;53.986;12.106;2023-04-01T05:58:21;2.67;;;1.90;;
15818;SDS011;8010;53.986;12.106;2023-04-01T06:00:47;3.70;;;2.20;;
15818;SDS011;8010;53.986;12.106;2023-04-01T06:03:12;3.87;;;2.17;;
15818;SDS011;8010;53.986;12.106;2023-04-01T06:05:39;4.43;;;2.20;;
15818;SDS011;8010;53.986;12.106;2023-04-01T06:08:09;3.20;;;2.20;;
15818;SDS011;8010;53.986;12.106;2023-04-01T06:13:54;4.03;;;2.17;;
15818;SDS011;8010;53.986;12.106;2023-04-01T06:16:43;3.83;;;2.00;;
15818;SDS011;8010;53.986;12.106;2023-04-01T06:30:25;2.87;;;1.47;;
15818;SDS011;8010;53.986;12.106;2023-04-01T06:38:30;3.60;;;1.60;;
15818;SDS011;8010;53.986;12.106;2023-04-01T06:43:41;3.43;;;1.50;;
15818;SDS011;8010;53.986;12.106;2023-04-01T06:46:23;5.17;;;1.60;;
15818;SDS011;8010;53.986;12.106;2023-04-01T06:49:07;3.90;;;1.40;;
15818;SDS011;8010;53.986;12.106;2023-04-01T06:51:58;3.40;;;1.73;;
15818;SDS011;8010;53.986;12.106;2023-04-01T06:54:48;2.43;;;1.40;;
15818;SDS011;8010;53.986;12.106;2023-04-01T07:00:18;1.77;;;1.10;;
15818;SDS011;8010;53.986;12.106;2023-04-01T07:05:45;2.50;;;1.23;;
15818;SDS011;8010;53.986;12.106;2023-04-01T07:08:23;4.23;;;1.20;;
15818;SDS011;8010;53.986;12.106;2023-04-01T07:10:56;3.50;;;1.37;;
15818;SDS011;8010;53.986;12.106;2023-04-01T07:13:36;1.97;;;1.40;;
15818;SDS011;8010;53.986;12.106;2023-04-01T07:18:42;1.57;;;1.20;;
15818;SDS011;8010;53.986;12.106;2023-04-01T07:21:17;2.37;;;1.50;;
15818;SDS011;8010;53.986;12.106;2023-04-01T07:23:51;2.60;;;1.50;;
15818;SDS011;8010;53.986;12.106;2023-04-01T07:26:22;3.60;;;1.67;;
15818;SDS011;8010;53.986;12.106;2023-04-01T07:28:50;5.40;;;1.30;;
15818;SDS011;8010;53.986;12.106;2023-04-01T07:31:25;2.17;;;1.50;;
15818;SDS011;8010;53.986;12.106;2023-04-01T07:34:09;6.43;;;1.70;;
15818;SDS011;8010;53.986;12.106;2023-04-01T07:37:03;4.87;;;1.80;;
15818;SDS011;8010;53.986;12.106;2023-04-01T07:51:03;4.53;;;2.57;;
15818;SDS011;8010;53.986;12.106;2023-04-01T07:53:45;3.43;;;2.37;;
15818;SDS011;8010;53.986;12.106;2023-04-01T07:56:13;3.10;;;1.83;;
15818;SDS011;8010;53.986;12.106;2023-04-01T07:59:00;6.47;;;2.43;;
15818;SDS011;8010;53.986;12.106;2023-04-01T08:01:56;6.37;;;2.97;;
15818;SDS011;8010;53.986;12.106;2023-04-01T08:14:52;4.00;;;2.90;;
15818;SDS011;8010;53.986;12.106;2023-04-01T08:17:38;5.67;;;3.17;;
15818;SDS011;8010;53.986;12.106;2023-04-01T08:23:13;8.47;;;4.30;;
15818;SDS011;8010;53.986;12.106;2023-04-01T08:25:50;7.50;;;3.87;;
15818;SDS011;8010;53.986;12.106;2023-04-01T08:28:23;8.60;;;4.03;;
15818;SDS011;8010;53.986;12.106;2023-04-01T08:30:52;5.33;;;3.30;;
15818;SDS011;8010;53.986;12.106;2023-04-01T08:33:29;6.20;;;3.07;;
15818;SDS011;8010;53.986;12.106;2023-04-01T08:38:42;11.33;;;3.90;;
15818;SDS011;8010;53.986;12.106;2023-04-01T08:47:05;7.60;;;4.50;;
15818;SDS011;8010;53.986;12.106;2023-04-01T08:49:56;8.33;;;4.03;;
15818;SDS011;8010;53.986;12.106;2023-04-01T09:01:08;7.47;;;4.43;;
15818;SDS011;8010;53.986;12.106;2023-04-01T09:03:55;8.57;;;4.20;;
15818;SDS011;8010;53.986;12.106;2023-04-01T09:06:35;7.83;;;3.57;;
15818;SDS011;8010;53.986;12.106;2023-04-01T09:15:01;9.77;;;5.27;;
15818;SDS011;8010;53.986;12.106;2023-04-01T09:28:55;6.80;;;3.47;;
15818;SDS011;8010;53.986;12.106;2023-04-01T09:31:52;8.53;;;4.20;;
15818;SDS011;8010;53.986;12.106;2023-04-01T09:45:47;7.73;;;3.97;;
15818;SDS011;8010;53.986;12.106;2023-04-01T09:48:39;7.67;;;3.67;;
15818;SDS011;8010;53.986;12.106;2023-04-01T09:54:35;5.30;;;3.40;;
15818;SDS011;8010;53.986;12.106;2023-04-01T10:00:07;8.20;;;4.77;;
15818;SDS011;8010;53.986;12.106;2023-04-01T10:08:33;7.97;;;3.23;;
15818;SDS011;8010;53.986;12.106;2023-04-01T10:11:32;9.00;;;3.83;;
15818;SDS011;8010;53.986;12.106;2023-04-01T10:14:35;6.53;;;3.00;;
15818;SDS011;8010;53.986;12.106;2023-04-01T10:36:31;18.00;;;7.37;;
15818;SDS011;8010;53.986;12.106;2023-04-01T10:59:51;15.60;;;6.40;;
15818;SDS011;8010;53.986;12.106;2023-04-01T11:10:45;9.23;;;4.23;;
15818;SDS011;8010;53.986;12.106;2023-04-01T11:25:20;9.83;;;4.50;;
15818;SDS011;8010;53.986;12.106;2023-04-01T11:28:23;6.07;;;3.13;;
15818;SDS011;8010;53.986;12.106;2023-04-01T11:31:35;11.03;;;3.97;;
15818;SDS011;8010;53.986;12.106;2023-04-01T11:34:11;6.40;;;3.60;;
15818;SDS011;8010;53.986;12.106;2023-04-01T11:45:28;9.40;;;3.57;;
15818;SDS011;8010;53.986;12.106;2023-04-01T11:57:02;7.57;;;2.60;;
15818;SDS011;8010;53.986;12.106;2023-04-01T11:59:57;5.93;;;2.90;;
15818;SDS011;8010;53.986;12.106;2023-04-01T12:13:53;7.93;;;3.53;;
15818;SDS011;8010;53.986;12.106;2023-04-01T12:18:51;6.93;;;3.40;;
15818;SDS011;8010;53.986;12.106;2023-04-01T12:21:25;5.43;;;3.20;;
15818;SDS011;8010;53.986;12.106;2023-04-01T12:29:43;5.37;;;2.80;;
15818;SDS011;8010;53.986;12.106;2023-04-01T12:32:35;5.73;;;3.17;;
15818;SDS011;8010;53.986;12.106;2023-04-01T12:35:26;6.90;;;3.00;;
15818;SDS011;8010;53.986;12.106;2023-04-01T13:02:37;5.67;;;3.07;;
15818;SDS011;8010;53.986;12.106;2023-04-01T13:10:58;6.70;;;2.67;;
15818;SDS011;8010;53.986;12.106;2023-04-01T13:13:55;4.27;;;2.80;;
15818;SDS011;8010;53.986;12.106;2023-04-01T13:16:35;7.70;;;2.93;;
15818;SDS011;8010;53.986;12.106;2023-04-01T13:19:20;5.23;;;2.40;;
15818;SDS011;8010;53.986;12.106;2023-04-01T13:22:15;4.47;;;2.70;;
15818;SDS011;8010;53.986;12.106;2023-04-01T13:25:10;4.10;;;2.57;;
15818;SDS011;8010;53.986;12.106;2023-04-01T13:27:56;4.60;;;2.47;;
15818;SDS011;8010;53.986;12.106;2023-04-01T13:33:56;5.00;;;2.10;;
15818;SDS011;8010;53.986;12.106;2023-04-01T13:36:34;5.90;;;2.90;;
15818;SDS011;8010;53.986;12.106;2023-04-01T13:39:40;3.93;;;2.37;;
15818;SDS011;8010;53.986;12.106;2023-04-01T13:42:17;5.37;;;2.13;;
15818;SDS011;8010;53.986;12.106;2023-04-01T13:45:15;6.53;;;1.83;;
15818;SDS011;8010;53.986;12.106;2023-04-01T13:50:45;2.23;;;1.73;;
15818;SDS011;8010;53.986;12.106;2023-04-01T13:59:40;4.87;;;2.30;;
15818;SDS011;8010;53.986;12.106;2023-04-01T14:12:59;3.67;;;1.73;;
15818;SDS011;8010;53.986;12.106;2023-04-01T14:18:08;4.03;;;1.93;;
15818;SDS011;8010;53.986;12.106;2023-04-01T14:24:06;4.10;;;2.10;;
15818;SDS011;8010;53.986;12.106;2023-04-01T14:34:24;3.77;;;1.90;;
15818;SDS011;8010;53.986;12.106;2023-04-01T14:40:14;4.23;;;2.20;;
15818;SDS011;8010;53.986;12.106;2023-04-01T14:42:55;5.37;;;2.07;;
15818;SDS011;8010;53.986;12.106;2023-04-01T14:53:43;3.00;;;1.47;;
15818;SDS011;8010;53.986;12.106;2023-04-01T14:59:10;3.30;;;1.90;;
15818;SDS011;8010;53.986;12.106;2023-04-01T15:01:50;7.13;;;2.30;;
15818;SDS011;8010;53.986;12.106;2023-04-01T15:12:57;2.87;;;1.70;;
15818;SDS011;8010;53.986;12.106;2023-04-01T15:21:05;5.13;;;1.60;;
15818;SDS011;8010;53.986;12.106;2023-04-01T15:23:47;3.77;;;2.27;;
15818;SDS011;8010;53.986;12.106;2023-04-01T15:26:36;3.30;;;1.60;;
15818;SDS011;8010;53.986;12.106;2023-04-01T15:42:28;5.03;;;2.10;;
15818;SDS011;8010;53.986;12.106;2023-04-01T15:47:44;5.90;;;1.90;;
15818;SDS011;8010;53.986;12.106;2023-04-01T15:55:54;3.93;;;1.90;;
15818;SDS011;8010;53.986;12.106;2023-04-01T16:01:02;3.10;;;1.70;;
15818;SDS011;8010;53.986;12.106;2023-04-01T16:06:12;4.70;;;2.27;;
15818;SDS011;8010;53.986;12.106;2023-04-01T16:09:03;3.00;;;1.50;;
15818;SDS011;8010;53.986;12.106;2023-04-01T16:11:46;4.80;;;1.90;;
15818;SDS011;8010;53.986;12.106;2023-04-01T16:14:36;3.13;;;1.80;;
15818;SDS011;8010;53.986;12.106;2023-04-01T16:19:59;3.07;;;1.83;;
15818;SDS011;8010;53.986;12.106;2023-04-01T16:28:27;2.23;;;1.60;;
15818;SDS011;8010;53.986;12.106;2023-04-01T16:31:05;2.77;;;1.83;;
15818;SDS011;8010;53.986;12.106;2023-04-01T16:33:44;4.10;;;2.00;;
15818;SDS011;8010;53.986;12.106;2023-04-01T16:41:41;3.13;;;1.80;;
15818;SDS011;8010;53.986;12.106;2023-04-01T16:44:24;5.57;;;2.20;;
15818;SDS011;8010;53.986;12.106;2023-04-01T16:46:52;3.93;;;1.93;;
15818;SDS011;8010;53.986;12.106;2023-04-01T16:52:00;7.57;;;3.20;;
15818;SDS011;8010;53.986;12.106;2023-04-01T16:54:36;4.17;;;2.17;;
15818;SDS011;8010;53.986;12.106;2023-04-01T16:59:56;3.87;;;1.63;;
15818;SDS011;8010;53.986;12.106;2023-04-01T17:02:49;2.20;;;1.40;;
15818;SDS011;8010;53.986;12.106;2023-04-01T17:05:33;4.03;;;1.70;;
15818;SDS011;8010;53.986;12.106;2023-04-01T17:08:17;4.90;;;1.90;;
15818;SDS011;8010;53.986;12.106;2023-04-01T17:19:25;3.17;;;1.70;;
15818;SDS011;8010;53.986;12.106;2023-04-01T17:22:21;3.20;;;1.40;;
15818;SDS011;8010;53.986;12.106;2023-04-01T17:25:07;4.23;;;1.37;;
15818;SDS011;8010;53.986;12.106;2023-04-01T17:36:19;4.77;;;1.87;;
15818;SDS011;8010;53.986;12.106;2023-04-01T17:42:14;4.37;;;1.70;;
15818;SDS011;8010;53.986;12.106;2023-04-01T17:47:37;4.67;;;1.80;;
15818;SDS011;8010;53.986;12.106;2023-04-01T17:55:31;2.57;;;1.50;;
15818;SDS011;8010;53.986;12.106;2023-04-01T17:58:27;5.97;;;1.37;;
15818;SDS011;8010;53.986;12.106;2023-04-01T18:22:48;4.20;;;1.40;;
15818;SDS011;8010;53.986;12.106;2023-04-01T18:25:30;4.07;;;1.30;;
15818;SDS011;8010;53.986;12.106;2023-04-01T18:28:15;3.67;;;1.10;;
15818;SDS011;8010;53.986;12.106;2023-04-01T18:30:50;2.40;;;1.00;;
15818;SDS011;8010;53.986;12.106;2023-04-01T18:33:30;5.10;;;1.20;;
15818;SDS011;8010;53.986;12.106;2023-04-01T18:36:15;5.63;;;1.10;;
15818;SDS011;8010;53.986;12.106;2023-04-01T18:39:03;1.90;;;1.00;;
15818;SDS011;8010;53.986;12.106;2023-04-01T18:41:36;2.20;;;0.80;;
15818;SDS011;8010;53.986;12.106;2023-04-01T18:47:44;4.03;;;1.03;;
15818;SDS011;8010;53.986;12.106;2023-04-01T18:50:36;1.53;;;0.60;;
15818;SDS011;8010;53.986;12.106;2023-04-01T18:53:12;3.47;;;1.10;;
15818;SDS011;8010;53.986;12.106;2023-04-01T18:55:47;5.10;;;0.93;;
15818;SDS011;8010;53.986;12.106;2023-04-01T19:03:39;2.30;;;1.07;;
15818;SDS011;8010;53.986;12.106;2023-04-01T19:06:14;2.10;;;0.80;;
15818;SDS011;8010;53.986;12.106;2023-04-01T19:08:47;4.83;;;0.87;;
15818;SDS011;8010;53.986;12.106;2023-04-01T19:11:16;1.90;;;0.80;;
15818;SDS011;8010;53.986;12.106;2023-04-01T19:16:49;2.83;;;0.90;;
15818;SDS011;8010;53.986;12.106;2023-04-01T19:19:34;2.77;;;1.23;;
15818;SDS011;8010;53.986;12.106;2023-04-01T19:22:32;1.73;;;0.77;;
15818;SDS011;8010;53.986;12.106;2023-04-01T19:25:20;1.93;;;0.80;;
15818;SDS011;8010;53.986;12.106;2023-04-01T19:30:53;3.47;;;0.73;;
15818;SDS011;8010;53.986;12.106;2023-04-01T19:47:02;2.77;;;0.73;;
15818;SDS011;8010;53.986;12.106;2023-04-01T19:52:41;0.80;;;0.70;;
15818;SDS011;8010;53.986;12.106;2023-04-01T20:00:27;2.03;;;0.80;;
15818;SDS011;8010;53.986;12.106;2023-04-01T20:03:13;2.80;;;0.87;;
15818;SDS011;8010;53.986;12.106;2023-04-01T20:06:10;3.13;;;1.20;;
15818;SDS011;8010;53.986;12.106;2023-04-01T20:08:59;1.57;;;0.50;;
15818;SDS011;8010;53.986;12.106;2023-04-01T20:14:40;2.90;;;0.80;;
15818;SDS011;8010;53.986;12.106;2023-04-01T20:17:13;3.70;;;1.00;;
15818;SDS011;8010;53.986;12.106;2023-04-01T20:19:53;1.40;;;0.67;;
15818;SDS011;8010;53.986;12.106;2023-04-01T20:24:50;2.13;;;0.73;;
15818;SDS011;8010;53.986;12.106;2023-04-01T20:27:19;1.77;;;0.70;;
15818;SDS011;8010;53.986;12.106;2023-04-01T20:39:19;4.60;;;1.03;;
15818;SDS011;8010;53.986;12.106;2023-04-01T20:44:30;3.77;;;1.00;;
15818;SDS011;8010;53.986;12.106;2023-04-01T20:50:15;2.97;;;0.77;;
15818;SDS011;8010;53.986;12.106;2023-04-01T20:53:04;6.80;;;1.30;;
15818;SDS011;8010;53.986;12.106;2023-04-01T21:04:14;1.70;;;0.60;;
15818;SDS011;8010;53.986;12.106;2023-04-01T21:07:04;1.50;;;0.97;;
15818;SDS011;8010;53.986;12.106;2023-04-01T21:09:51;1.40;;;0.60;;
15818;SDS011;8010;53.986;12.106;2023-04-01T21:12:48;2.63;;;0.80;;
15818;SDS011;8010;53.986;12.106;2023-04-01T21:15:26;3.20;;;0.90;;
15818;SDS011;8010;53.986;12.106;2023-04-01T21:18:11;5.87;;;1.20;;
15818;SDS011;8010;53.986;12.106;2023-04-01T21:20:55;0.70;;;0.57;;
15818;SDS011;8010;53.986;12.106;2023-04-01T21:23:39;1.43;;;0.70;;
15818;SDS011;8010;53.986;12.106;2023-04-01T21:37:36;2.47;;;0.70;;
15818;SDS011;8010;53.986;12.106;2023-04-01T21:43:12;2.10;;;0.53;;
15818;SDS011;8010;53.986;12.106;2023-04-01T22:00:32;4.60;;;0.73;;
15818;SDS011;8010;53.986;12.106;2023-04-01T22:06:08;1.90;;;0.80;;
15818;SDS011;8010;53.986;12.106;2023-04-01T22:08:49;3.07;;;0.80;;
15818;SDS011;8010;53.986;12.106;2023-04-01T22:11:19;1.87;;;0.50;;
15818;SDS011;8010;53.986;12.106;2023-04-01T22:16:56;1.10;;;0.63;;
15818;SDS011;8010;53.986;12.106;2023-04-01T22:19:37;1.13;;;0.60;;
15818;SDS011;8010;53.986;12.106;2023-04-01T22:22:22;2.77;;;0.63;;
15818;SDS011;8010;53.986;12.106;2023-04-01T22:25:14;3.60;;;0.80;;
15818;SDS011;8010;53.986;12.106;2023-04-01T22:27:51;1.87;;;0.57;;
15818;SDS011;8010;53.986;12.106;2023-04-01T22:30:23;5.13;;;0.97;;
15818;SDS011;8010;53.986;12.106;2023-04-01T22:36:03;5.17;;;0.63;;
15818;SDS011;8010;53.986;12.106;2023-04-01T22:38:51;2.30;;;0.60;;
15818;SDS011;8010;53.986;12.106;2023-04-01T22:44:22;1.67;;;0.80;;
15818;SDS011;8010;53.986;12.106;2023-04-01T22:46:56;6.30;;;0.90;;
15818;SDS011;8010;53.986;12.106;2023-04-01T22:49:41;3.57;;;0.93;;
15818;SDS011;8010;53.986;12.106;2023-04-01T22:52:35;4.40;;;1.80;;
15818;SDS011;8010;53.986;12.106;2023-04-01T22:55:17;1.20;;;0.50;;
15818;SDS011;8010;53.986;12.106;2023-04-01T22:57:54;6.13;;;0.97;;
15818;SDS011;8010;53.986;12.106;2023-04-01T23:00:28;1.83;;;0.73;;
15818;SDS011;8010;53.986;12.106;2023-04-01T23:05:53;1.27;;;0.57;;
15818;SDS011;8010;53.986;12.106;2023-04-01T23:08:32;3.37;;;0.80;;
15818;SDS011;8010;53.986;12.106;2023-04-01T23:11:29;4.63;;;0.70;;
15818;SDS011;8010;53.986;12.106;2023-04-01T23:16:46;5.13;;;0.60;;
15818;SDS011;8010;53.986;12.106;2023-04-01T23:19:23;2.37;;;0.63;;
15818;SDS011;8010;53.986;12.106;2023-04-01T23:21:59;1.10;;;0.50;;
15818;SDS011;8010;53.986;12.106;2023-04-01T23:24:50;3.27;;;0.80;;
15818;SDS011;8010;53.986;12.106;2023-04-01T23:27:32;1.87;;;0.50;;
15818;SDS011;8010;53.986;12.106;2023-04-01T23:30:02;2.17;;;0.40;;
15818;SDS011;8010;53.986;12.106;2023-04-01T23:32:28;0.97;;;0.57;;
15818;SDS011;8010;53.986;12.106;2023-04-01T23:34:55;1.60;;;0.50;;
15818;SDS011;8010;53.986;12.106;2023-04-01T23:37:22;0.60;;;0.30;;
15818;SDS011;8010;53.986;12.106;2023-04-01T23:39:52;1.47;;;0.87;;
15818;SDS011;8010;53.986;12.106;2023-04-01T23:42:22;2.43;;;0.63;;
15818;SDS011;8010;53.986;12.106;2023-04-01T23:44:51;1.57;;;0.53;;
15818;SDS011;8010;53.986;12.106;2023-04-01T23:47:22;2.00;;;0.70;;
15818;SDS011;8010;53.986;12.106;2023-04-01T23:49:52;2.10;;;0.67;;
15818;SDS011;8010;53.986;12.106;2023-04-01T23:52:29;2.87;;;0.60;;
15818;SDS011;8010;53.986;12.106;2023-04-01T23:57:38;4.73;;;0.73;;
